Maersk Essen — V7UQ8 — position and weather

sailwx.info

Track history (hours):
 
Tides and Currents Weather Stations Pressure Air Temp Water Temp Dewpoint Dewpoint Depression Visibility Wind Speed Wind Dir Waves Ship Positions

Maersk Essen

Last reported at 2017-May-19 04:19 UTC. Time now 2017-May-27 13:50 UTC.
Position N 24°20' E 118°50'.
Warning: this ship's position is 8 days out of date.

Length 367 m; draft 13.4 m.

Type: Ship (hazmat cat A). MMSI: 538004007.

Date/timePositionNaut miles runAvg speedWind from/ knotsBaromVisibWave heightAir tempDewpointWater temp
2017-May-19 04:19N 24°20' E 118°50'1421.3
2017-May-19 03:40N 24°16' E 118°35'420.5
2017-May-19 03:29N 24°15' E 118°31'918.9
2017-May-19 03:00N 24°12' E 118°21'816.6
2017-May-19 02:30N 24°17' E 118°14'816.3
2017-May-19 02:00N 24°23' E 118°08'611.2
2017-May-19 01:30N 24°26' E 118°03'1 1.6
2017-May-19 00:59N 24°26' E 118°02'0 0.0
2017-May-19 00:29N 24°26' E 118°02'0 0.0
2017-May-18 23:59N 24°26' E 118°02'0 0.0
2017-May-18 23:29N 24°26' E 118°02'0 0.0
2017-May-18 22:59N 24°26' E 118°02'0 0.0
2017-May-18 22:29N 24°26' E 118°02'0 0.0
2017-May-18 21:59N 24°26' E 118°02'0 0.0
2017-May-18 21:29N 24°26' E 118°02'0 0.0
2017-May-18 20:59N 24°26' E 118°02'0 0.0
2017-May-18 20:29N 24°26' E 118°02'0 0.0
2017-May-18 19:59N 24°26' E 118°02'0 0.0
2017-May-18 19:29N 24°26' E 118°02'0 0.0
2017-May-18 18:59N 24°26' E 118°02'0 0.0
2017-May-18 18:29N 24°26' E 118°02'0 0.0
2017-May-18 17:59N 24°26' E 118°02'0 0.0
2017-May-18 17:29N 24°26' E 118°02'0 0.0
2017-May-18 16:53N 24°26' E 118°02'0 0.0
2017-May-18 16:29N 24°26' E 118°02'0 0.0
2017-May-18 15:59N 24°27' E 118°02'0 0.0
2017-May-18 15:29N 24°26' E 118°02'0 0.0
2017-May-18 14:59N 24°26' E 118°02'0 0.0
2017-May-18 14:29N 24°26' E 118°02'0 0.0
2017-May-18 13:29N 24°26' E 118°02'0 0.0
2017-May-18 12:59N 24°26' E 118°02'0 0.0
2017-May-18 12:29N 24°26' E 118°02'0 0.0
2017-May-18 11:59N 24°26' E 118°02'0 0.0
2017-May-18 11:29N 24°26' E 118°02'0 0.0
2017-May-18 10:59N 24°26' E 118°02'0 0.0
2017-May-18 10:29N 24°26' E 118°02'0 0.0
2017-May-18 09:59N 24°26' E 118°02'0 0.0
2017-May-18 09:26N 24°26' E 118°02'0 0.0
2017-May-18 08:59N 24°26' E 118°02'0 0.0
2017-May-18 08:29N 24°26' E 118°02'0 0.0
2017-May-18 07:59N 24°26' E 118°02'0 0.0
2017-May-18 07:29N 24°26' E 118°02'0 0.0
2017-May-18 06:59N 24°26' E 118°02'0 0.0
2017-May-18 06:29N 24°26' E 118°02'0 0.0
2017-May-18 06:00N 24°26' E 118°02'1 1.4
2017-May-18 05:30N 24°26' E 118°02'611.5
2017-May-18 05:01N 24°23' E 118°08'611.2
2017-May-18 04:31N 24°19' E 118°12'612.6
2017-May-18 04:00N 24°14' E 118°16'5 9.7
2017-May-18 03:30N 24°11' E 118°21'5 9.4
2017-May-18 03:00N 24°10' E 118°26'0 0.0
2017-May-17 07:51N 24°10' E 118°26'1 2.8
2017-May-17 07:29N 24°10' E 118°25'3 6.3
2017-May-17 07:00N 24°11' E 118°22'3 6.0
2017-May-17 06:30N 24°09' E 118°20'5 9.9
2017-May-17 06:00N 24°04' E 118°18'612.2
2017-May-17 05:29N 23°58' E 118°15'  
2017-May-13 19:09N 22°20' E 114°07'0 1.3
2017-May-13 18:46N 22°20' E 114°07'  
Track history (hours):
 
Tides and Currents Weather Stations Pressure Air Temp Water Temp Dewpoint Dewpoint Depression Visibility Wind Speed Wind Dir Waves Ship Positions

Maersk Essen

Last reported at 2017-May-19 04:19 UTC. Time now 2017-May-27 13:50 UTC.
Position N 24°20' E 118°50'.
Warning: this ship's position is 8 days out of date.

Length 367 m; draft 13.4 m.

Type: Ship (hazmat cat A). MMSI: 538004007.

Date/timePositionNaut miles runAvg speedWind from/ knotsBaromVisibWave heightAir tempDewpointWater temp
2017-May-19 04:19N 24°20' E 118°50'1421.3
2017-May-19 03:40N 24°16' E 118°35'420.5
2017-May-19 03:29N 24°15' E 118°31'918.9
2017-May-19 03:00N 24°12' E 118°21'816.6
2017-May-19 02:30N 24°17' E 118°14'816.3
2017-May-19 02:00N 24°23' E 118°08'611.2
2017-May-19 01:30N 24°26' E 118°03'1 1.6
2017-May-19 00:59N 24°26' E 118°02'0 0.0
2017-May-19 00:29N 24°26' E 118°02'0 0.0
2017-May-18 23:59N 24°26' E 118°02'0 0.0
2017-May-18 23:29N 24°26' E 118°02'0 0.0
2017-May-18 22:59N 24°26' E 118°02'0 0.0
2017-May-18 22:29N 24°26' E 118°02'0 0.0
2017-May-18 21:59N 24°26' E 118°02'0 0.0
2017-May-18 21:29N 24°26' E 118°02'0 0.0
2017-May-18 20:59N 24°26' E 118°02'0 0.0
2017-May-18 20:29N 24°26' E 118°02'0 0.0
2017-May-18 19:59N 24°26' E 118°02'0 0.0
2017-May-18 19:29N 24°26' E 118°02'0 0.0
2017-May-18 18:59N 24°26' E 118°02'0 0.0
2017-May-18 18:29N 24°26' E 118°02'0 0.0
2017-May-18 17:59N 24°26' E 118°02'0 0.0
2017-May-18 17:29N 24°26' E 118°02'0 0.0
2017-May-18 16:53N 24°26' E 118°02'0 0.0
2017-May-18 16:29N 24°26' E 118°02'0 0.0
2017-May-18 15:59N 24°27' E 118°02'0 0.0
2017-May-18 15:29N 24°26' E 118°02'0 0.0
2017-May-18 14:59N 24°26' E 118°02'0 0.0
2017-May-18 14:29N 24°26' E 118°02'0 0.0
2017-May-18 13:29N 24°26' E 118°02'0 0.0
2017-May-18 12:59N 24°26' E 118°02'0 0.0
2017-May-18 12:29N 24°26' E 118°02'0 0.0
2017-May-18 11:59N 24°26' E 118°02'0 0.0
2017-May-18 11:29N 24°26' E 118°02'0 0.0
2017-May-18 10:59N 24°26' E 118°02'0 0.0
2017-May-18 10:29N 24°26' E 118°02'0 0.0
2017-May-18 09:59N 24°26' E 118°02'0 0.0
2017-May-18 09:26N 24°26' E 118°02'0 0.0
2017-May-18 08:59N 24°26' E 118°02'0 0.0
2017-May-18 08:29N 24°26' E 118°02'0 0.0
2017-May-18 07:59N 24°26' E 118°02'0 0.0
2017-May-18 07:29N 24°26' E 118°02'0 0.0
2017-May-18 06:59N 24°26' E 118°02'0 0.0
2017-May-18 06:29N 24°26' E 118°02'0 0.0
2017-May-18 06:00N 24°26' E 118°02'1 1.4
2017-May-18 05:30N 24°26' E 118°02'611.5
2017-May-18 05:01N 24°23' E 118°08'611.2
2017-May-18 04:31N 24°19' E 118°12'612.6
2017-May-18 04:00N 24°14' E 118°16'5 9.7
2017-May-18 03:30N 24°11' E 118°21'5 9.4
2017-May-18 03:00N 24°10' E 118°26'0 0.0
2017-May-17 07:51N 24°10' E 118°26'1 2.8
2017-May-17 07:29N 24°10' E 118°25'3 6.3
2017-May-17 07:00N 24°11' E 118°22'3 6.0
2017-May-17 06:30N 24°09' E 118°20'5 9.9
2017-May-17 06:00N 24°04' E 118°18'612.2
2017-May-17 05:29N 23°58' E 118°15'  
2017-May-13 19:09N 22°20' E 114°07'0 1.3
2017-May-13 18:46N 22°20' E 114°07'  

Dump ship's entire track history